sensor_id;sensor_type;location;lat;lon;timestamp;temperature;humidity
17423;DHT22;8829;47.932;7.810;2024-01-15T00:02:25;-2.00;99.90
17423;DHT22;8829;47.932;7.810;2024-01-15T00:04:51;-1.90;99.90
17423;DHT22;8829;47.932;7.810;2024-01-15T00:07:19;-1.90;99.90
17423;DHT22;8829;47.932;7.810;2024-01-15T00:09:46;-1.80;99.90
17423;DHT22;8829;47.932;7.810;2024-01-15T00:12:13;-1.70;99.90
17423;DHT22;8829;47.932;7.810;2024-01-15T00:14:39;-1.60;99.90
17423;DHT22;8829;47.932;7.810;2024-01-15T00:17:06;-1.60;99.90
17423;DHT22;8829;47.932;7.810;2024-01-15T00:19:33;-1.60;99.90
17423;DHT22;8829;47.932;7.810;2024-01-15T00:21:59;-1.60;99.90
17423;DHT22;8829;47.932;7.810;2024-01-15T00:24:28;-1.80;99.90
17423;DHT22;8829;47.932;7.810;2024-01-15T00:26:54;-1.80;99.90
17423;DHT22;8829;47.932;7.810;2024-01-15T00:29:21;-1.80;99.90
17423;DHT22;8829;47.932;7.810;2024-01-15T00:31:48;-1.70;99.90
17423;DHT22;8829;47.932;7.810;2024-01-15T00:34:14;-1.80;99.90
17423;DHT22;8829;47.932;7.810;2024-01-15T00:36:41;-1.90;99.90
17423;DHT22;8829;47.932;7.810;2024-01-15T00:39:08;-1.90;99.90
17423;DHT22;8829;47.932;7.810;2024-01-15T00:41:38;-1.90;99.90
17423;DHT22;8829;47.932;7.810;2024-01-15T00:44:04;-1.80;99.90
17423;DHT22;8829;47.932;7.810;2024-01-15T00:46:33;-1.70;99.90
17423;DHT22;8829;47.932;7.810;2024-01-15T00:49:07;-1.60;99.90
17423;DHT22;8829;47.932;7.810;2024-01-15T00:51:34;-1.70;99.90
17423;DHT22;8829;47.932;7.810;2024-01-15T00:54:00;-1.60;99.90
17423;DHT22;8829;47.932;7.810;2024-01-15T00:56:27;-1.80;99.90
17423;DHT22;8829;47.932;7.810;2024-01-15T00:58:55;-2.00;99.90
17423;DHT22;8829;47.932;7.810;2024-01-15T01:01:22;-2.10;99.90
17423;DHT22;8829;47.932;7.810;2024-01-15T01:03:50;-2.20;99.90
17423;DHT22;8829;47.932;7.810;2024-01-15T01:06:17;-2.30;99.90
17423;DHT22;8829;47.932;7.810;2024-01-15T01:08:43;-2.30;99.90
17423;DHT22;8829;47.932;7.810;2024-01-15T01:11:13;-2.20;99.90
17423;DHT22;8829;47.932;7.810;2024-01-15T01:13:39;-2.10;99.90
17423;DHT22;8829;47.932;7.810;2024-01-15T01:16:07;-2.20;99.90
17423;DHT22;8829;47.932;7.810;2024-01-15T01:18:35;-2.10;99.90
17423;DHT22;8829;47.932;7.810;2024-01-15T01:21:02;-1.90;99.90
17423;DHT22;8829;47.932;7.810;2024-01-15T01:23:29;-1.80;99.90
17423;DHT22;8829;47.932;7.810;2024-01-15T01:25:57;-1.70;99.90
17423;DHT22;8829;47.932;7.810;2024-01-15T01:28:24;-1.70;99.90
17423;DHT22;8829;47.932;7.810;2024-01-15T01:30:50;-1.70;99.90
17423;DHT22;8829;47.932;7.810;2024-01-15T01:33:20;-1.80;99.90
17423;DHT22;8829;47.932;7.810;2024-01-15T01:35:47;-1.90;99.90
17423;DHT22;8829;47.932;7.810;2024-01-15T01:38:14;-2.00;99.90
17423;DHT22;8829;47.932;7.810;2024-01-15T01:40:41;-1.90;99.90
17423;DHT22;8829;47.932;7.810;2024-01-15T01:43:09;-1.80;99.90
17423;DHT22;8829;47.932;7.810;2024-01-15T01:45:37;-1.70;99.90
17423;DHT22;8829;47.932;7.810;2024-01-15T01:48:05;-1.80;99.90
17423;DHT22;8829;47.932;7.810;2024-01-15T01:50:33;-1.70;99.90
17423;DHT22;8829;47.932;7.810;2024-01-15T01:53:01;-1.70;99.90
17423;DHT22;8829;47.932;7.810;2024-01-15T01:55:30;-1.40;99.90
17423;DHT22;8829;47.932;7.810;2024-01-15T01:57:59;-1.10;99.90
17423;DHT22;8829;47.932;7.810;2024-01-15T02:00:26;-1.00;99.90
17423;DHT22;8829;47.932;7.810;2024-01-15T02:02:52;-0.80;99.90
17423;DHT22;8829;47.932;7.810;2024-01-15T02:05:19;-0.70;99.90
17423;DHT22;8829;47.932;7.810;2024-01-15T02:07:49;-0.50;99.90
17423;DHT22;8829;47.932;7.810;2024-01-15T02:10:16;-0.40;99.90
17423;DHT22;8829;47.932;7.810;2024-01-15T02:12:43;-0.30;99.90
17423;DHT22;8829;47.932;7.810;2024-01-15T02:15:11;-0.40;99.90
17423;DHT22;8829;47.932;7.810;2024-01-15T02:17:56;-0.30;99.90
17423;DHT22;8829;47.932;7.810;2024-01-15T02:20:24;-0.30;99.90
17423;DHT22;8829;47.932;7.810;2024-01-15T02:22:53;-0.30;99.90
17423;DHT22;8829;47.932;7.810;2024-01-15T02:25:21;-0.40;99.90
17423;DHT22;8829;47.932;7.810;2024-01-15T02:27:48;-0.40;99.90
17423;DHT22;8829;47.932;7.810;2024-01-15T02:30:15;-0.40;99.90
17423;DHT22;8829;47.932;7.810;2024-01-15T02:32:43;-0.50;99.90
17423;DHT22;8829;47.932;7.810;2024-01-15T02:35:10;-0.50;99.90
17423;DHT22;8829;47.932;7.810;2024-01-15T02:37:36;-0.40;99.90
17423;DHT22;8829;47.932;7.810;2024-01-15T02:40:04;-0.50;99.90
17423;DHT22;8829;47.932;7.810;2024-01-15T02:42:32;-0.40;99.90
17423;DHT22;8829;47.932;7.810;2024-01-15T02:44:59;-0.40;99.90
17423;DHT22;8829;47.932;7.810;2024-01-15T02:47:26;-0.40;99.90
17423;DHT22;8829;47.932;7.810;2024-01-15T02:49:52;-0.40;99.90
17423;DHT22;8829;47.932;7.810;2024-01-15T02:52:19;-0.30;99.90
17423;DHT22;8829;47.932;7.810;2024-01-15T02:54:46;-0.30;99.90
17423;DHT22;8829;47.932;7.810;2024-01-15T02:57:13;-0.40;99.90
17423;DHT22;8829;47.932;7.810;2024-01-15T02:59:41;-0.50;99.90
17423;DHT22;8829;47.932;7.810;2024-01-15T03:02:08;-0.50;99.90
17423;DHT22;8829;47.932;7.810;2024-01-15T03:04:35;-0.60;99.90
17423;DHT22;8829;47.932;7.810;2024-01-15T03:07:01;-0.50;99.90
17423;DHT22;8829;47.932;7.810;2024-01-15T03:09:28;-0.50;99.90
17423;DHT22;8829;47.932;7.810;2024-01-15T03:11:55;-0.50;99.90
17423;DHT22;8829;47.932;7.810;2024-01-15T03:14:22;-0.50;99.90
17423;DHT22;8829;47.932;7.810;2024-01-15T03:16:52;-0.50;99.90
17423;DHT22;8829;47.932;7.810;2024-01-15T03:19:19;-0.40;99.90
17423;DHT22;8829;47.932;7.810;2024-01-15T03:21:45;-0.40;99.90
17423;DHT22;8829;47.932;7.810;2024-01-15T03:24:12;-0.40;99.90
17423;DHT22;8829;47.932;7.810;2024-01-15T03:26:39;-0.40;99.90
17423;DHT22;8829;47.932;7.810;2024-01-15T03:29:06;-0.40;99.90
17423;DHT22;8829;47.932;7.810;2024-01-15T03:31:33;-0.40;99.90
17423;DHT22;8829;47.932;7.810;2024-01-15T03:34:01;-0.50;99.90
17423;DHT22;8829;47.932;7.810;2024-01-15T03:36:29;-0.60;99.90
17423;DHT22;8829;47.932;7.810;2024-01-15T03:38:55;-0.50;99.90
17423;DHT22;8829;47.932;7.810;2024-01-15T03:41:22;-0.50;99.90
17423;DHT22;8829;47.932;7.810;2024-01-15T03:43:49;-0.60;99.90
17423;DHT22;8829;47.932;7.810;2024-01-15T03:46:15;-0.90;99.90
17423;DHT22;8829;47.932;7.810;2024-01-15T03:48:42;-0.90;99.90
17423;DHT22;8829;47.932;7.810;2024-01-15T03:51:10;-1.00;99.90
17423;DHT22;8829;47.932;7.810;2024-01-15T03:53:38;-0.90;99.90
17423;DHT22;8829;47.932;7.810;2024-01-15T03:56:05;-0.90;99.90
17423;DHT22;8829;47.932;7.810;2024-01-15T03:58:31;-1.00;99.90
17423;DHT22;8829;47.932;7.810;2024-01-15T04:00:58;-0.90;99.90
17423;DHT22;8829;47.932;7.810;2024-01-15T04:03:25;-0.80;99.90
17423;DHT22;8829;47.932;7.810;2024-01-15T04:05:51;-0.70;99.90
17423;DHT22;8829;47.932;7.810;2024-01-15T04:08:20;-0.60;99.90
17423;DHT22;8829;47.932;7.810;2024-01-15T04:10:46;-0.50;99.90
17423;DHT22;8829;47.932;7.810;2024-01-15T04:13:13;-0.50;99.90
17423;DHT22;8829;47.932;7.810;2024-01-15T04:15:40;-0.40;99.90
17423;DHT22;8829;47.932;7.810;2024-01-15T04:18:07;-0.40;99.90
17423;DHT22;8829;47.932;7.810;2024-01-15T04:20:34;-0.40;99.90
17423;DHT22;8829;47.932;7.810;2024-01-15T04:23:01;-0.30;99.90
17423;DHT22;8829;47.932;7.810;2024-01-15T04:25:29;-0.30;99.90
17423;DHT22;8829;47.932;7.810;2024-01-15T04:27:56;-0.20;99.90
17423;DHT22;8829;47.932;7.810;2024-01-15T04:30:24;-0.20;99.90
17423;DHT22;8829;47.932;7.810;2024-01-15T04:32:50;-0.20;99.90
17423;DHT22;8829;47.932;7.810;2024-01-15T04:35:17;-0.10;99.90
17423;DHT22;8829;47.932;7.810;2024-01-15T04:37:44;-0.10;99.90
17423;DHT22;8829;47.932;7.810;2024-01-15T04:40:11;-0.30;99.90
17423;DHT22;8829;47.932;7.810;2024-01-15T04:42:39;-0.40;99.90
17423;DHT22;8829;47.932;7.810;2024-01-15T04:45:06;-0.40;99.90
17423;DHT22;8829;47.932;7.810;2024-01-15T04:47:33;-0.40;99.90
17423;DHT22;8829;47.932;7.810;2024-01-15T04:50:02;-0.20;99.90
17423;DHT22;8829;47.932;7.810;2024-01-15T04:52:29;-0.20;99.90
17423;DHT22;8829;47.932;7.810;2024-01-15T04:54:56;-0.30;99.90
17423;DHT22;8829;47.932;7.810;2024-01-15T04:57:22;-0.20;99.90
17423;DHT22;8829;47.932;7.810;2024-01-15T04:59:50;-0.20;99.90
17423;DHT22;8829;47.932;7.810;2024-01-15T05:02:17;-0.10;99.90
17423;DHT22;8829;47.932;7.810;2024-01-15T05:04:44;-0.10;99.90
17423;DHT22;8829;47.932;7.810;2024-01-15T05:07:10;-0.10;99.90
17423;DHT22;8829;47.932;7.810;2024-01-15T05:09:37;-0.10;99.90
17423;DHT22;8829;47.932;7.810;2024-01-15T05:12:04;-0.10;99.90
17423;DHT22;8829;47.932;7.810;2024-01-15T05:14:31;-0.10;99.90
17423;DHT22;8829;47.932;7.810;2024-01-15T05:16:59;-0.10;99.90
17423;DHT22;8829;47.932;7.810;2024-01-15T05:19:26;-0.10;99.90
17423;DHT22;8829;47.932;7.810;2024-01-15T05:21:52;0.00;99.90
17423;DHT22;8829;47.932;7.810;2024-01-15T05:24:19;0.00;99.90
17423;DHT22;8829;47.932;7.810;2024-01-15T05:26:46;-0.10;99.90
17423;DHT22;8829;47.932;7.810;2024-01-15T05:29:13;-0.20;99.90
17423;DHT22;8829;47.932;7.810;2024-01-15T05:31:39;-0.20;99.90
17423;DHT22;8829;47.932;7.810;2024-01-15T05:34:08;-0.10;99.90
17423;DHT22;8829;47.932;7.810;2024-01-15T05:36:34;-0.20;99.90
17423;DHT22;8829;47.932;7.810;2024-01-15T05:39:01;-0.20;99.90
17423;DHT22;8829;47.932;7.810;2024-01-15T05:41:28;-0.30;99.90
17423;DHT22;8829;47.932;7.810;2024-01-15T05:43:55;-0.30;99.90
17423;DHT22;8829;47.932;7.810;2024-01-15T05:46:22;-0.30;99.90
17423;DHT22;8829;47.932;7.810;2024-01-15T05:48:49;-0.30;99.90
17423;DHT22;8829;47.932;7.810;2024-01-15T05:51:17;-0.20;99.90
17423;DHT22;8829;47.932;7.810;2024-01-15T05:53:45;-0.20;99.90
17423;DHT22;8829;47.932;7.810;2024-01-15T05:56:11;-0.20;99.90
17423;DHT22;8829;47.932;7.810;2024-01-15T05:58:38;-0.20;99.90
17423;DHT22;8829;47.932;7.810;2024-01-15T06:01:05;-0.20;99.90
17423;DHT22;8829;47.932;7.810;2024-01-15T06:03:31;-0.40;99.90
17423;DHT22;8829;47.932;7.810;2024-01-15T06:05:58;-0.40;99.90
17423;DHT22;8829;47.932;7.810;2024-01-15T06:08:26;-0.30;99.90
17423;DHT22;8829;47.932;7.810;2024-01-15T06:10:56;-0.50;99.90
17423;DHT22;8829;47.932;7.810;2024-01-15T06:13:22;-0.50;99.90
17423;DHT22;8829;47.932;7.810;2024-01-15T06:15:49;-0.50;99.90
17423;DHT22;8829;47.932;7.810;2024-01-15T06:18:16;-0.40;99.90
17423;DHT22;8829;47.932;7.810;2024-01-15T06:20:43;-0.40;99.90
17423;DHT22;8829;47.932;7.810;2024-01-15T06:23:10;-0.30;99.90
17423;DHT22;8829;47.932;7.810;2024-01-15T06:25:40;-0.20;99.90
17423;DHT22;8829;47.932;7.810;2024-01-15T06:28:06;-0.30;99.90
17423;DHT22;8829;47.932;7.810;2024-01-15T06:30:33;-0.30;99.90
17423;DHT22;8829;47.932;7.810;2024-01-15T06:33:00;-0.30;99.90
17423;DHT22;8829;47.932;7.810;2024-01-15T06:35:27;-0.30;99.90
17423;DHT22;8829;47.932;7.810;2024-01-15T06:37:54;-0.30;99.90
17423;DHT22;8829;47.932;7.810;2024-01-15T06:40:20;-0.50;99.90
17423;DHT22;8829;47.932;7.810;2024-01-15T06:42:48;-0.60;99.90
17423;DHT22;8829;47.932;7.810;2024-01-15T06:45:15;-0.50;99.90
17423;DHT22;8829;47.932;7.810;2024-01-15T06:47:43;-0.50;99.90
17423;DHT22;8829;47.932;7.810;2024-01-15T06:50:10;-0.40;99.90
17423;DHT22;8829;47.932;7.810;2024-01-15T06:52:36;-0.40;99.90
17423;DHT22;8829;47.932;7.810;2024-01-15T06:55:04;-0.40;99.90
17423;DHT22;8829;47.932;7.810;2024-01-15T06:57:31;-0.50;99.90
17423;DHT22;8829;47.932;7.810;2024-01-15T06:59:59;-0.70;99.90
17423;DHT22;8829;47.932;7.810;2024-01-15T07:02:26;-0.70;99.90
17423;DHT22;8829;47.932;7.810;2024-01-15T07:04:53;-0.80;99.90
17423;DHT22;8829;47.932;7.810;2024-01-15T07:07:19;-0.70;99.90
17423;DHT22;8829;47.932;7.810;2024-01-15T07:09:46;-0.60;99.90
17423;DHT22;8829;47.932;7.810;2024-01-15T07:12:13;-0.70;99.90
17423;DHT22;8829;47.932;7.810;2024-01-15T07:14:41;-0.60;99.90
17423;DHT22;8829;47.932;7.810;2024-01-15T07:17:09;-0.50;99.90
17423;DHT22;8829;47.932;7.810;2024-01-15T07:19:35;-0.50;99.90
17423;DHT22;8829;47.932;7.810;2024-01-15T07:22:02;-0.40;99.90
17423;DHT22;8829;47.932;7.810;2024-01-15T07:24:29;-0.40;99.90
17423;DHT22;8829;47.932;7.810;2024-01-15T07:26:56;-0.30;99.90
17423;DHT22;8829;47.932;7.810;2024-01-15T07:29:23;-0.30;99.90
17423;DHT22;8829;47.932;7.810;2024-01-15T07:31:50;-0.20;99.90
17423;DHT22;8829;47.932;7.810;2024-01-15T07:34:18;-0.20;99.90
17423;DHT22;8829;47.932;7.810;2024-01-15T07:36:45;-0.20;99.90
17423;DHT22;8829;47.932;7.810;2024-01-15T07:39:11;-0.20;99.90
17423;DHT22;8829;47.932;7.810;2024-01-15T07:41:39;-0.10;99.90
17423;DHT22;8829;47.932;7.810;2024-01-15T07:44:05;0.00;99.90
17423;DHT22;8829;47.932;7.810;2024-01-15T07:46:32;0.10;99.90
17423;DHT22;8829;47.932;7.810;2024-01-15T07:48:59;0.10;99.90
17423;DHT22;8829;47.932;7.810;2024-01-15T07:51:27;0.20;99.90
17423;DHT22;8829;47.932;7.810;2024-01-15T07:53:54;0.20;99.90
17423;DHT22;8829;47.932;7.810;2024-01-15T07:56:21;0.30;99.90
17423;DHT22;8829;47.932;7.810;2024-01-15T07:58:48;0.30;99.90
17423;DHT22;8829;47.932;7.810;2024-01-15T08:01:15;0.30;99.90
17423;DHT22;8829;47.932;7.810;2024-01-15T08:03:41;0.30;99.90
17423;DHT22;8829;47.932;7.810;2024-01-15T08:06:08;0.30;99.90
17423;DHT22;8829;47.932;7.810;2024-01-15T08:08:37;0.40;99.90
17423;DHT22;8829;47.932;7.810;2024-01-15T08:11:04;0.40;99.90
17423;DHT22;8829;47.932;7.810;2024-01-15T08:13:31;0.30;99.90
17423;DHT22;8829;47.932;7.810;2024-01-15T08:15:58;0.30;99.90
17423;DHT22;8829;47.932;7.810;2024-01-15T08:18:24;0.30;99.90
17423;DHT22;8829;47.932;7.810;2024-01-15T08:20:51;0.30;99.90
17423;DHT22;8829;47.932;7.810;2024-01-15T08:23:20;0.40;99.90
17423;DHT22;8829;47.932;7.810;2024-01-15T08:25:48;0.40;99.90
17423;DHT22;8829;47.932;7.810;2024-01-15T08:28:16;0.30;99.90
17423;DHT22;8829;47.932;7.810;2024-01-15T08:30:43;0.30;99.90
17423;DHT22;8829;47.932;7.810;2024-01-15T08:33:12;0.30;99.90
17423;DHT22;8829;47.932;7.810;2024-01-15T08:35:39;0.30;99.90
17423;DHT22;8829;47.932;7.810;2024-01-15T08:38:05;0.30;99.90
17423;DHT22;8829;47.932;7.810;2024-01-15T08:40:32;0.30;99.90
17423;DHT22;8829;47.932;7.810;2024-01-15T08:43:01;0.40;99.90
17423;DHT22;8829;47.932;7.810;2024-01-15T08:45:28;0.40;99.90
17423;DHT22;8829;47.932;7.810;2024-01-15T08:47:55;0.50;99.90
17423;DHT22;8829;47.932;7.810;2024-01-15T08:50:22;0.50;99.90
17423;DHT22;8829;47.932;7.810;2024-01-15T08:52:48;0.50;99.90
17423;DHT22;8829;47.932;7.810;2024-01-15T08:55:15;0.50;99.90
17423;DHT22;8829;47.932;7.810;2024-01-15T08:57:42;0.60;99.90
17423;DHT22;8829;47.932;7.810;2024-01-15T09:00:12;0.60;99.90
17423;DHT22;8829;47.932;7.810;2024-01-15T09:02:38;0.60;99.90
17423;DHT22;8829;47.932;7.810;2024-01-15T09:05:05;0.50;99.90
17423;DHT22;8829;47.932;7.810;2024-01-15T09:07:32;0.50;99.90
17423;DHT22;8829;47.932;7.810;2024-01-15T09:09:59;0.60;99.90
17423;DHT22;8829;47.932;7.810;2024-01-15T09:12:27;0.70;99.90
17423;DHT22;8829;47.932;7.810;2024-01-15T09:14:54;0.80;99.90
17423;DHT22;8829;47.932;7.810;2024-01-15T09:17:25;0.70;99.90
17423;DHT22;8829;47.932;7.810;2024-01-15T09:19:53;0.70;99.90
17423;DHT22;8829;47.932;7.810;2024-01-15T09:22:20;0.70;99.90
17423;DHT22;8829;47.932;7.810;2024-01-15T09:24:50;0.90;99.90
17423;DHT22;8829;47.932;7.810;2024-01-15T09:27:17;0.90;99.90
17423;DHT22;8829;47.932;7.810;2024-01-15T09:29:43;1.10;99.90
17423;DHT22;8829;47.932;7.810;2024-01-15T09:32:11;1.20;99.90
17423;DHT22;8829;47.932;7.810;2024-01-15T09:34:40;1.40;99.90
17423;DHT22;8829;47.932;7.810;2024-01-15T09:37:07;1.50;99.90
17423;DHT22;8829;47.932;7.810;2024-01-15T09:39:33;1.50;99.90
17423;DHT22;8829;47.932;7.810;2024-01-15T09:42:00;1.50;99.90
17423;DHT22;8829;47.932;7.810;2024-01-15T09:44:28;1.60;99.90
17423;DHT22;8829;47.932;7.810;2024-01-15T09:46:55;1.60;99.90
17423;DHT22;8829;47.932;7.810;2024-01-15T09:49:22;1.70;99.90
17423;DHT22;8829;47.932;7.810;2024-01-15T09:51:51;1.60;99.90
17423;DHT22;8829;47.932;7.810;2024-01-15T09:54:18;1.60;99.90
17423;DHT22;8829;47.932;7.810;2024-01-15T09:56:45;1.70;99.90
17423;DHT22;8829;47.932;7.810;2024-01-15T09:59:15;1.80;99.90
17423;DHT22;8829;47.932;7.810;2024-01-15T10:01:43;1.80;99.90
17423;DHT22;8829;47.932;7.810;2024-01-15T10:04:10;1.90;99.90
17423;DHT22;8829;47.932;7.810;2024-01-15T10:06:38;2.00;99.90
17423;DHT22;8829;47.932;7.810;2024-01-15T10:09:07;2.00;99.90
17423;DHT22;8829;47.932;7.810;2024-01-15T10:11:35;2.10;99.90
17423;DHT22;8829;47.932;7.810;2024-01-15T10:14:02;2.00;99.90
17423;DHT22;8829;47.932;7.810;2024-01-15T10:16:30;2.00;99.90
17423;DHT22;8829;47.932;7.810;2024-01-15T10:18:57;2.00;99.90
17423;DHT22;8829;47.932;7.810;2024-01-15T10:21:24;2.00;99.90
17423;DHT22;8829;47.932;7.810;2024-01-15T10:23:52;1.90;99.90
17423;DHT22;8829;47.932;7.810;2024-01-15T10:26:24;1.90;99.90
17423;DHT22;8829;47.932;7.810;2024-01-15T10:28:51;2.00;99.90
17423;DHT22;8829;47.932;7.810;2024-01-15T10:31:18;2.00;99.90
17423;DHT22;8829;47.932;7.810;2024-01-15T10:33:47;2.00;99.90
17423;DHT22;8829;47.932;7.810;2024-01-15T10:36:14;1.90;99.90
17423;DHT22;8829;47.932;7.810;2024-01-15T10:38:42;1.90;99.90
17423;DHT22;8829;47.932;7.810;2024-01-15T10:41:09;1.90;99.90
17423;DHT22;8829;47.932;7.810;2024-01-15T10:43:37;1.90;99.90
17423;DHT22;8829;47.932;7.810;2024-01-15T10:46:07;1.90;99.90
17423;DHT22;8829;47.932;7.810;2024-01-15T10:48:33;1.90;99.90
17423;DHT22;8829;47.932;7.810;2024-01-15T10:51:01;1.80;99.90
17423;DHT22;8829;47.932;7.810;2024-01-15T10:53:37;1.80;99.90
17423;DHT22;8829;47.932;7.810;2024-01-15T10:56:05;1.80;99.90
17423;DHT22;8829;47.932;7.810;2024-01-15T10:58:34;1.70;99.90
17423;DHT22;8829;47.932;7.810;2024-01-15T11:01:02;1.70;99.90
17423;DHT22;8829;47.932;7.810;2024-01-15T11:03:31;1.80;99.90
17423;DHT22;8829;47.932;7.810;2024-01-15T11:05:59;1.80;99.90
17423;DHT22;8829;47.932;7.810;2024-01-15T11:08:26;1.60;99.90
17423;DHT22;8829;47.932;7.810;2024-01-15T11:10:53;1.60;99.90
17423;DHT22;8829;47.932;7.810;2024-01-15T11:13:21;1.60;99.90
17423;DHT22;8829;47.932;7.810;2024-01-15T11:15:59;1.50;99.90
17423;DHT22;8829;47.932;7.810;2024-01-15T11:18:29;1.40;99.90
17423;DHT22;8829;47.932;7.810;2024-01-15T11:21:21;1.50;99.90
17423;DHT22;8829;47.932;7.810;2024-01-15T11:23:49;1.40;99.90
17423;DHT22;8829;47.932;7.810;2024-01-15T11:26:34;1.40;99.90
17423;DHT22;8829;47.932;7.810;2024-01-15T11:29:02;1.40;99.90
17423;DHT22;8829;47.932;7.810;2024-01-15T11:34:17;1.50;99.90
17423;DHT22;8829;47.932;7.810;2024-01-15T11:37:02;1.50;99.90
17423;DHT22;8829;47.932;7.810;2024-01-15T11:39:42;1.50;99.90
17423;DHT22;8829;47.932;7.810;2024-01-15T11:42:10;1.50;99.90
17423;DHT22;8829;47.932;7.810;2024-01-15T11:44:37;1.60;99.90
17423;DHT22;8829;47.932;7.810;2024-01-15T11:47:07;1.60;99.90
17423;DHT22;8829;47.932;7.810;2024-01-15T11:49:53;1.60;99.90
17423;DHT22;8829;47.932;7.810;2024-01-15T11:52:25;1.70;99.90
17423;DHT22;8829;47.932;7.810;2024-01-15T11:54:59;1.70;99.90
17423;DHT22;8829;47.932;7.810;2024-01-15T11:57:33;1.70;99.90
17423;DHT22;8829;47.932;7.810;2024-01-15T12:00:04;1.70;99.90
17423;DHT22;8829;47.932;7.810;2024-01-15T12:02:32;1.70;99.90
17423;DHT22;8829;47.932;7.810;2024-01-15T12:05:00;1.60;99.90
17423;DHT22;8829;47.932;7.810;2024-01-15T12:07:29;1.70;99.90
17423;DHT22;8829;47.932;7.810;2024-01-15T12:09:55;1.70;99.90
17423;DHT22;8829;47.932;7.810;2024-01-15T12:12:29;1.80;99.90
17423;DHT22;8829;47.932;7.810;2024-01-15T12:15:04;1.80;99.90
17423;DHT22;8829;47.932;7.810;2024-01-15T12:17:31;1.80;99.90
17423;DHT22;8829;47.932;7.810;2024-01-15T12:19:57;1.80;99.90
17423;DHT22;8829;47.932;7.810;2024-01-15T12:22:26;1.90;99.90
17423;DHT22;8829;47.932;7.810;2024-01-15T12:24:53;1.90;99.90
17423;DHT22;8829;47.932;7.810;2024-01-15T12:27:20;2.10;99.90
17423;DHT22;8829;47.932;7.810;2024-01-15T12:29:47;2.10;99.90
17423;DHT22;8829;47.932;7.810;2024-01-15T12:32:14;2.10;99.90
17423;DHT22;8829;47.932;7.810;2024-01-15T12:34:40;2.20;99.90
17423;DHT22;8829;47.932;7.810;2024-01-15T12:37:07;2.30;99.90
17423;DHT22;8829;47.932;7.810;2024-01-15T12:39:35;2.40;99.90
17423;DHT22;8829;47.932;7.810;2024-01-15T12:42:03;2.30;99.90
17423;DHT22;8829;47.932;7.810;2024-01-15T12:44:31;2.30;99.90
17423;DHT22;8829;47.932;7.810;2024-01-15T12:46:59;2.20;99.90
17423;DHT22;8829;47.932;7.810;2024-01-15T12:49:26;2.20;99.90
17423;DHT22;8829;47.932;7.810;2024-01-15T12:51:56;2.20;99.90
17423;DHT22;8829;47.932;7.810;2024-01-15T12:54:23;2.10;99.90
17423;DHT22;8829;47.932;7.810;2024-01-15T12:56:52;2.20;99.90
17423;DHT22;8829;47.932;7.810;2024-01-15T12:59:19;2.10;99.90
17423;DHT22;8829;47.932;7.810;2024-01-15T13:01:46;2.10;99.90
17423;DHT22;8829;47.932;7.810;2024-01-15T13:04:21;2.20;99.90
17423;DHT22;8829;47.932;7.810;2024-01-15T13:06:48;2.20;99.90
17423;DHT22;8829;47.932;7.810;2024-01-15T13:09:15;2.20;99.90
17423;DHT22;8829;47.932;7.810;2024-01-15T13:11:42;2.20;99.90
17423;DHT22;8829;47.932;7.810;2024-01-15T13:14:10;2.20;99.90
17423;DHT22;8829;47.932;7.810;2024-01-15T13:16:39;2.10;99.90
17423;DHT22;8829;47.932;7.810;2024-01-15T13:19:07;2.00;99.90
17423;DHT22;8829;47.932;7.810;2024-01-15T13:21:33;2.00;99.90
17423;DHT22;8829;47.932;7.810;2024-01-15T13:24:00;2.00;99.90
17423;DHT22;8829;47.932;7.810;2024-01-15T13:26:27;2.00;99.90
17423;DHT22;8829;47.932;7.810;2024-01-15T13:28:54;1.80;99.90
17423;DHT22;8829;47.932;7.810;2024-01-15T13:31:22;1.70;99.90
17423;DHT22;8829;47.932;7.810;2024-01-15T13:33:48;1.80;99.90
17423;DHT22;8829;47.932;7.810;2024-01-15T13:36:15;1.80;99.90
17423;DHT22;8829;47.932;7.810;2024-01-15T13:38:42;1.70;99.90
17423;DHT22;8829;47.932;7.810;2024-01-15T13:41:09;1.70;99.90
17423;DHT22;8829;47.932;7.810;2024-01-15T13:43:35;1.80;99.90
17423;DHT22;8829;47.932;7.810;2024-01-15T13:46:02;1.70;99.90
17423;DHT22;8829;47.932;7.810;2024-01-15T13:48:31;1.70;99.90
17423;DHT22;8829;47.932;7.810;2024-01-15T13:50:58;1.70;99.90
17423;DHT22;8829;47.932;7.810;2024-01-15T13:53:26;1.70;99.90
17423;DHT22;8829;47.932;7.810;2024-01-15T13:55:53;1.70;99.90
17423;DHT22;8829;47.932;7.810;2024-01-15T13:58:20;1.60;99.90
17423;DHT22;8829;47.932;7.810;2024-01-15T14:00:47;1.70;99.90
17423;DHT22;8829;47.932;7.810;2024-01-15T14:03:15;1.80;99.90
17423;DHT22;8829;47.932;7.810;2024-01-15T14:05:42;1.70;99.90
17423;DHT22;8829;47.932;7.810;2024-01-15T14:08:09;1.60;99.90
17423;DHT22;8829;47.932;7.810;2024-01-15T14:10:36;1.70;99.90
17423;DHT22;8829;47.932;7.810;2024-01-15T14:13:03;1.60;99.90
17423;DHT22;8829;47.932;7.810;2024-01-15T14:15:30;1.60;99.90
17423;DHT22;8829;47.932;7.810;2024-01-15T14:17:56;1.50;99.90
17423;DHT22;8829;47.932;7.810;2024-01-15T14:20:24;1.50;99.90
17423;DHT22;8829;47.932;7.810;2024-01-15T14:22:52;1.50;99.90
17423;DHT22;8829;47.932;7.810;2024-01-15T14:25:19;1.60;99.90
17423;DHT22;8829;47.932;7.810;2024-01-15T14:27:46;1.50;99.90
17423;DHT22;8829;47.932;7.810;2024-01-15T14:30:13;1.60;99.90
17423;DHT22;8829;47.932;7.810;2024-01-15T14:32:41;1.50;99.90
17423;DHT22;8829;47.932;7.810;2024-01-15T14:35:08;1.40;99.90
17423;DHT22;8829;47.932;7.810;2024-01-15T14:37:36;1.40;99.90
17423;DHT22;8829;47.932;7.810;2024-01-15T14:40:06;1.50;99.90
17423;DHT22;8829;47.932;7.810;2024-01-15T14:42:33;1.40;99.90
17423;DHT22;8829;47.932;7.810;2024-01-15T14:45:00;1.30;99.90
17423;DHT22;8829;47.932;7.810;2024-01-15T14:47:28;1.30;99.90
17423;DHT22;8829;47.932;7.810;2024-01-15T14:49:54;1.30;99.90
17423;DHT22;8829;47.932;7.810;2024-01-15T14:52:22;1.30;99.90
17423;DHT22;8829;47.932;7.810;2024-01-15T14:54:49;1.30;99.90
17423;DHT22;8829;47.932;7.810;2024-01-15T14:57:17;1.40;99.90
17423;DHT22;8829;47.932;7.810;2024-01-15T14:59:43;1.30;99.90
17423;DHT22;8829;47.932;7.810;2024-01-15T15:02:12;1.40;99.90
17423;DHT22;8829;47.932;7.810;2024-01-15T15:04:39;1.30;99.90
17423;DHT22;8829;47.932;7.810;2024-01-15T15:07:07;1.40;99.90
17423;DHT22;8829;47.932;7.810;2024-01-15T15:09:33;1.40;99.90
17423;DHT22;8829;47.932;7.810;2024-01-15T15:12:03;1.40;99.90
17423;DHT22;8829;47.932;7.810;2024-01-15T15:14:33;1.40;99.90
17423;DHT22;8829;47.932;7.810;2024-01-15T15:17:04;1.40;99.90
17423;DHT22;8829;47.932;7.810;2024-01-15T15:19:31;1.30;99.90
17423;DHT22;8829;47.932;7.810;2024-01-15T15:21:58;1.30;99.90
17423;DHT22;8829;47.932;7.810;2024-01-15T15:24:25;1.30;99.90
17423;DHT22;8829;47.932;7.810;2024-01-15T15:26:52;1.30;99.90
17423;DHT22;8829;47.932;7.810;2024-01-15T15:29:19;1.30;99.90
17423;DHT22;8829;47.932;7.810;2024-01-15T15:31:47;1.20;99.90
17423;DHT22;8829;47.932;7.810;2024-01-15T15:34:14;1.20;99.90
17423;DHT22;8829;47.932;7.810;2024-01-15T15:36:42;1.20;99.90
17423;DHT22;8829;47.932;7.810;2024-01-15T15:39:10;1.20;99.90
17423;DHT22;8829;47.932;7.810;2024-01-15T15:41:41;1.20;99.90
17423;DHT22;8829;47.932;7.810;2024-01-15T15:44:08;1.10;99.90
17423;DHT22;8829;47.932;7.810;2024-01-15T15:46:35;1.10;99.90
17423;DHT22;8829;47.932;7.810;2024-01-15T15:49:04;1.20;99.90
17423;DHT22;8829;47.932;7.810;2024-01-15T15:51:32;1.20;99.90
17423;DHT22;8829;47.932;7.810;2024-01-15T15:53:58;1.20;99.90
17423;DHT22;8829;47.932;7.810;2024-01-15T15:56:26;1.20;99.90
17423;DHT22;8829;47.932;7.810;2024-01-15T15:58:53;1.10;99.90
17423;DHT22;8829;47.932;7.810;2024-01-15T16:01:20;1.10;99.90